sensor_id;sensor_type;location;lat;lon;timestamp;pressure;altitude;pressure_sealevel;temperature;humidity
39491;BME280;25175;50.140;18.990;2023-10-19T00:00:51;97889.88;;;3.78;60.31
39491;BME280;25175;50.140;18.990;2023-10-19T00:03:57;97891.50;;;3.79;59.93
39491;BME280;25175;50.140;18.990;2023-10-19T00:07:03;97890.53;;;3.80;60.09
39491;BME280;25175;50.140;18.990;2023-10-19T00:10:09;97875.66;;;3.74;59.87
39491;BME280;25175;50.140;18.990;2023-10-19T00:13:12;97878.19;;;3.82;59.79
39491;BME280;25175;50.140;18.990;2023-10-19T00:16:22;97879.34;;;3.79;59.96
39491;BME280;25175;50.140;18.990;2023-10-19T00:19:31;97850.16;;;3.77;59.91
39491;BME280;25175;50.140;18.990;2023-10-19T00:22:40;97859.19;;;3.67;60.74
39491;BME280;25175;50.140;18.990;2023-10-19T00:25:43;97833.09;;;3.54;63.02
39491;BME280;25175;50.140;18.990;2023-10-19T00:28:52;97839.97;;;3.47;64.17
39491;BME280;25175;50.140;18.990;2023-10-19T00:32:03;97652.56;;;2.45;63.99
39491;BME280;25175;50.140;18.990;2023-10-19T00:35:14;97833.63;;;3.64;63.83
39491;BME280;25175;50.140;18.990;2023-10-19T00:38:29;97825.75;;;3.72;63.72
39491;BME280;25175;50.140;18.990;2023-10-19T00:41:48;97565.88;;;2.26;63.05
39491;BME280;25175;50.140;18.990;2023-10-19T00:44:58;97790.16;;;3.66;62.71
39491;BME280;25175;50.140;18.990;2023-10-19T00:48:10;97819.78;;;3.86;62.57
39491;BME280;25175;50.140;18.990;2023-10-19T00:51:18;97807.97;;;3.83;62.36
39491;BME280;25175;50.140;18.990;2023-10-19T00:54:43;97804.38;;;3.84;62.47
39491;BME280;25175;50.140;18.990;2023-10-19T00:57:54;97795.19;;;3.82;62.40
39491;BME280;25175;50.140;18.990;2023-10-19T01:01:00;97781.56;;;3.80;62.36
39491;BME280;25175;50.140;18.990;2023-10-19T01:04:10;97795.69;;;3.92;62.16
39491;BME280;25175;50.140;18.990;2023-10-19T01:07:22;97781.34;;;3.96;62.13
39491;BME280;25175;50.140;18.990;2023-10-19T01:10:29;97788.41;;;4.02;61.87
39491;BME280;25175;50.140;18.990;2023-10-19T01:13:34;97773.47;;;4.04;61.54
39491;BME280;25175;50.140;18.990;2023-10-19T01:16:39;97768.28;;;4.04;61.11
39491;BME280;25175;50.140;18.990;2023-10-19T01:19:49;97760.91;;;4.07;60.78
39491;BME280;25175;50.140;18.990;2023-10-19T01:22:59;97700.78;;;3.68;60.74
39491;BME280;25175;50.140;18.990;2023-10-19T01:26:22;97750.97;;;4.11;60.11
39491;BME280;25175;50.140;18.990;2023-10-19T01:29:27;97742.81;;;4.14;59.86
39491;BME280;25175;50.140;18.990;2023-10-19T01:32:33;97726.44;;;4.13;59.95
39491;BME280;25175;50.140;18.990;2023-10-19T01:35:38;97728.94;;;4.07;60.01
39491;BME280;25175;50.140;18.990;2023-10-19T01:38:59;97721.31;;;3.99;60.32
39491;BME280;25175;50.140;18.990;2023-10-19T01:42:10;97733.03;;;3.95;60.17
39491;BME280;25175;50.140;18.990;2023-10-19T01:45:15;97721.03;;;3.94;59.91
39491;BME280;25175;50.140;18.990;2023-10-19T01:48:18;97714.59;;;3.90;59.66
39491;BME280;25175;50.140;18.990;2023-10-19T01:51:31;97690.50;;;3.75;59.78
39491;BME280;25175;50.140;18.990;2023-10-19T01:54:37;97715.00;;;3.87;59.46
39491;BME280;25175;50.140;18.990;2023-10-19T01:57:42;97708.28;;;3.78;59.43
39491;BME280;25175;50.140;18.990;2023-10-19T02:00:47;97685.78;;;3.64;60.31
39491;BME280;25175;50.140;18.990;2023-10-19T02:03:53;97697.81;;;3.71;60.04
39491;BME280;25175;50.140;18.990;2023-10-19T02:06:59;97680.78;;;3.62;59.84
39491;BME280;25175;50.140;18.990;2023-10-19T02:10:07;97690.78;;;3.65;60.40
39491;BME280;25175;50.140;18.990;2023-10-19T02:13:11;97651.59;;;3.39;61.09
39491;BME280;25175;50.140;18.990;2023-10-19T02:16:18;97677.00;;;3.65;61.09
39491;BME280;25175;50.140;18.990;2023-10-19T02:19:24;97591.56;;;3.21;61.19
39491;BME280;25175;50.140;18.990;2023-10-19T02:22:30;97655.53;;;3.71;61.43
39491;BME280;25175;50.140;18.990;2023-10-19T02:25:35;97663.47;;;3.84;61.66
39491;BME280;25175;50.140;18.990;2023-10-19T02:28:43;97659.34;;;3.89;61.69
39491;BME280;25175;50.140;18.990;2023-10-19T02:31:48;97656.78;;;3.96;61.84
39491;BME280;25175;50.140;18.990;2023-10-19T02:34:51;97645.22;;;3.98;61.74
39491;BME280;25175;50.140;18.990;2023-10-19T02:37:56;97635.47;;;4.00;62.08
39491;BME280;25175;50.140;18.990;2023-10-19T02:41:04;97646.47;;;4.02;62.19
39491;BME280;25175;50.140;18.990;2023-10-19T02:44:09;97632.06;;;4.00;62.37
39491;BME280;25175;50.140;18.990;2023-10-19T02:47:21;97646.13;;;4.12;62.05
39491;BME280;25175;50.140;18.990;2023-10-19T02:50:24;97633.78;;;4.14;62.35
39491;BME280;25175;50.140;18.990;2023-10-19T02:53:29;97380.13;;;2.64;62.26
39491;BME280;25175;50.140;18.990;2023-10-19T02:56:35;97616.69;;;4.26;62.26
39491;BME280;25175;50.140;18.990;2023-10-19T02:59:40;97594.34;;;4.25;62.18
39491;BME280;25175;50.140;18.990;2023-10-19T03:02:42;97602.38;;;4.36;62.28
39491;BME280;25175;50.140;18.990;2023-10-19T03:05:47;97592.41;;;4.40;62.01
39491;BME280;25175;50.140;18.990;2023-10-19T03:08:52;97573.97;;;4.28;62.32
39491;BME280;25175;50.140;18.990;2023-10-19T03:12:02;97565.44;;;4.34;62.15
39491;BME280;25175;50.140;18.990;2023-10-19T03:15:11;97559.41;;;4.34;62.15
39491;BME280;25175;50.140;18.990;2023-10-19T03:18:16;97567.06;;;4.42;62.33
39491;BME280;25175;50.140;18.990;2023-10-19T03:21:20;97562.47;;;4.44;61.93
39491;BME280;25175;50.140;18.990;2023-10-19T03:24:28;97561.47;;;4.45;62.01
39491;BME280;25175;50.140;18.990;2023-10-19T03:27:39;97560.28;;;4.47;61.96
39491;BME280;25175;50.140;18.990;2023-10-19T03:30:46;97561.72;;;4.50;61.42
39491;BME280;25175;50.140;18.990;2023-10-19T03:33:51;97554.91;;;4.49;61.39
39491;BME280;25175;50.140;18.990;2023-10-19T03:37:01;97547.31;;;4.47;61.20
39491;BME280;25175;50.140;18.990;2023-10-19T03:40:09;97545.53;;;4.48;61.19
39491;BME280;25175;50.140;18.990;2023-10-19T03:43:21;97542.13;;;4.47;61.56
39491;BME280;25175;50.140;18.990;2023-10-19T03:46:28;97542.50;;;4.44;61.95
39491;BME280;25175;50.140;18.990;2023-10-19T03:49:33;97554.69;;;4.44;62.19
39491;BME280;25175;50.140;18.990;2023-10-19T03:52:40;97547.72;;;4.44;62.54
39491;BME280;25175;50.140;18.990;2023-10-19T03:55:47;97539.69;;;4.46;62.48
39491;BME280;25175;50.140;18.990;2023-10-19T03:58:56;97526.69;;;4.39;62.59
39491;BME280;25175;50.140;18.990;2023-10-19T04:02:02;97527.16;;;4.49;62.83
39491;BME280;25175;50.140;18.990;2023-10-19T04:05:12;97530.94;;;4.53;63.00
39491;BME280;25175;50.140;18.990;2023-10-19T04:08:23;97501.38;;;4.48;62.83
39491;BME280;25175;50.140;18.990;2023-10-19T04:11:28;97504.59;;;4.56;62.96
39491;BME280;25175;50.140;18.990;2023-10-19T04:14:52;97483.00;;;4.56;62.91
39491;BME280;25175;50.140;18.990;2023-10-19T04:17:57;97477.00;;;4.49;63.03
39491;BME280;25175;50.140;18.990;2023-10-19T04:21:03;97490.44;;;4.59;63.14
39491;BME280;25175;50.140;18.990;2023-10-19T04:24:08;97487.81;;;4.59;62.97
39491;BME280;25175;50.140;18.990;2023-10-19T04:27:14;97476.25;;;4.61;63.23
39491;BME280;25175;50.140;18.990;2023-10-19T04:30:21;97474.44;;;4.62;62.95
39491;BME280;25175;50.140;18.990;2023-10-19T04:33:28;97455.28;;;4.63;63.33
39491;BME280;25175;50.140;18.990;2023-10-19T04:36:33;97452.28;;;4.66;63.14
39491;BME280;25175;50.140;18.990;2023-10-19T04:39:38;97452.69;;;4.69;62.71
39491;BME280;25175;50.140;18.990;2023-10-19T04:42:43;97447.88;;;4.73;62.77
39491;BME280;25175;50.140;18.990;2023-10-19T04:45:52;97407.31;;;4.59;62.70
39491;BME280;25175;50.140;18.990;2023-10-19T04:48:56;97444.94;;;4.82;62.40
39491;BME280;25175;50.140;18.990;2023-10-19T04:52:02;97443.75;;;4.85;62.25
39491;BME280;25175;50.140;18.990;2023-10-19T04:55:07;97439.13;;;4.87;62.61
39491;BME280;25175;50.140;18.990;2023-10-19T04:58:12;97441.13;;;4.91;62.52
39491;BME280;25175;50.140;18.990;2023-10-19T05:01:20;97431.38;;;4.93;62.34
39491;BME280;25175;50.140;18.990;2023-10-19T05:04:26;97438.75;;;4.96;62.18
39491;BME280;25175;50.140;18.990;2023-10-19T05:07:31;97431.75;;;4.97;62.25
39491;BME280;25175;50.140;18.990;2023-10-19T05:10:36;97435.53;;;5.01;62.23
39491;BME280;25175;50.140;18.990;2023-10-19T05:13:41;97423.56;;;5.00;62.61
39491;BME280;25175;50.140;18.990;2023-10-19T05:16:49;97417.97;;;5.03;62.46
39491;BME280;25175;50.140;18.990;2023-10-19T05:19:54;97407.56;;;4.96;62.67
39491;BME280;25175;50.140;18.990;2023-10-19T05:23:00;97408.38;;;5.10;62.24
39491;BME280;25175;50.140;18.990;2023-10-19T05:26:05;97391.53;;;4.73;62.53
39491;BME280;25175;50.140;18.990;2023-10-19T05:29:11;97416.19;;;5.16;62.44
39491;BME280;25175;50.140;18.990;2023-10-19T05:32:18;97413.97;;;5.20;62.20
39491;BME280;25175;50.140;18.990;2023-10-19T05:35:25;97411.78;;;5.23;61.88
39491;BME280;25175;50.140;18.990;2023-10-19T05:38:30;97414.78;;;5.27;62.06
39491;BME280;25175;50.140;18.990;2023-10-19T05:41:37;97411.97;;;5.28;62.01
39491;BME280;25175;50.140;18.990;2023-10-19T05:44:42;97426.38;;;5.31;62.01
39491;BME280;25175;50.140;18.990;2023-10-19T05:47:49;97427.97;;;5.32;62.04
39491;BME280;25175;50.140;18.990;2023-10-19T05:50:54;97418.78;;;5.36;61.96
39491;BME280;25175;50.140;18.990;2023-10-19T05:53:59;97424.19;;;5.41;62.13
39491;BME280;25175;50.140;18.990;2023-10-19T05:57:05;97424.78;;;5.43;61.99
39491;BME280;25175;50.140;18.990;2023-10-19T06:00:12;97415.56;;;5.47;61.88
39491;BME280;25175;50.140;18.990;2023-10-19T06:03:21;97411.59;;;5.51;62.36
39491;BME280;25175;50.140;18.990;2023-10-19T06:06:26;97408.56;;;5.54;62.02
39491;BME280;25175;50.140;18.990;2023-10-19T06:09:31;97398.75;;;5.56;61.71
39491;BME280;25175;50.140;18.990;2023-10-19T06:12:36;97402.34;;;5.55;61.90
39491;BME280;25175;50.140;18.990;2023-10-19T06:15:41;97390.53;;;5.59;61.81
39491;BME280;25175;50.140;18.990;2023-10-19T06:18:48;97388.34;;;5.62;62.03
39491;BME280;25175;50.140;18.990;2023-10-19T06:21:53;97384.94;;;5.62;62.37
39491;BME280;25175;50.140;18.990;2023-10-19T06:24:58;97365.13;;;5.54;62.43
39491;BME280;25175;50.140;18.990;2023-10-19T06:28:04;97382.34;;;5.62;62.57
39491;BME280;25175;50.140;18.990;2023-10-19T06:31:10;97365.53;;;5.58;62.67
39491;BME280;25175;50.140;18.990;2023-10-19T06:34:18;97369.53;;;5.67;62.71
39491;BME280;25175;50.140;18.990;2023-10-19T06:37:23;97368.75;;;5.73;62.63
39491;BME280;25175;50.140;18.990;2023-10-19T06:40:31;97354.28;;;5.77;62.53
39491;BME280;25175;50.140;18.990;2023-10-19T06:43:39;97351.88;;;5.82;62.48
39491;BME280;25175;50.140;18.990;2023-10-19T06:46:44;97346.66;;;5.88;62.03
39491;BME280;25175;50.140;18.990;2023-10-19T06:49:52;97342.66;;;5.92;62.28
39491;BME280;25175;50.140;18.990;2023-10-19T06:52:56;97330.00;;;5.96;62.03
39491;BME280;25175;50.140;18.990;2023-10-19T06:56:02;97333.00;;;5.99;62.08
39491;BME280;25175;50.140;18.990;2023-10-19T06:59:50;97334.97;;;6.04;62.45
39491;BME280;25175;50.140;18.990;2023-10-19T07:03:15;97317.75;;;6.09;62.66
39491;BME280;25175;50.140;18.990;2023-10-19T07:06:22;97330.69;;;6.16;62.35
39491;BME280;25175;50.140;18.990;2023-10-19T07:09:28;97314.06;;;6.17;62.82
39491;BME280;25175;50.140;18.990;2023-10-19T07:12:33;97308.47;;;6.20;62.70
39491;BME280;25175;50.140;18.990;2023-10-19T07:15:38;97313.03;;;6.24;62.74
39491;BME280;25175;50.140;18.990;2023-10-19T07:18:43;97302.00;;;6.29;62.44
39491;BME280;25175;50.140;18.990;2023-10-19T07:21:51;97298.56;;;6.35;62.50
39491;BME280;25175;50.140;18.990;2023-10-19T07:24:58;97296.13;;;6.40;62.23
39491;BME280;25175;50.140;18.990;2023-10-19T07:28:07;97301.50;;;6.45;61.52
39491;BME280;25175;50.140;18.990;2023-10-19T07:31:13;97298.84;;;6.51;61.11
39491;BME280;25175;50.140;18.990;2023-10-19T07:34:19;97280.97;;;6.55;60.28
39491;BME280;25175;50.140;18.990;2023-10-19T07:37:29;97298.38;;;6.61;59.96
39491;BME280;25175;50.140;18.990;2023-10-19T07:40:34;97288.34;;;6.64;60.26
39491;BME280;25175;50.140;18.990;2023-10-19T07:43:39;97276.75;;;6.60;59.29
39491;BME280;25175;50.140;18.990;2023-10-19T07:46:45;97266.88;;;6.62;58.84
39491;BME280;25175;50.140;18.990;2023-10-19T07:49:50;97276.84;;;6.72;58.86
39491;BME280;25175;50.140;18.990;2023-10-19T07:53:01;97266.53;;;6.59;58.91
39491;BME280;25175;50.140;18.990;2023-10-19T07:56:06;97243.09;;;6.77;59.11
39491;BME280;25175;50.140;18.990;2023-10-19T07:59:11;97267.50;;;6.89;59.34
39491;BME280;25175;50.140;18.990;2023-10-19T08:02:17;97263.00;;;6.96;59.19
39491;BME280;25175;50.140;18.990;2023-10-19T08:05:22;97280.75;;;7.05;59.45
39491;BME280;25175;50.140;18.990;2023-10-19T08:08:29;97268.81;;;7.16;59.46
39491;BME280;25175;50.140;18.990;2023-10-19T08:11:37;97262.34;;;7.25;59.93
39491;BME280;25175;50.140;18.990;2023-10-19T08:14:43;97256.41;;;7.36;59.93
39491;BME280;25175;50.140;18.990;2023-10-19T08:17:50;97265.41;;;7.22;59.93
39491;BME280;25175;50.140;18.990;2023-10-19T08:20:56;97256.25;;;7.49;59.89
39491;BME280;25175;50.140;18.990;2023-10-19T08:24:04;97240.53;;;7.55;59.40
39491;BME280;25175;50.140;18.990;2023-10-19T08:27:14;97236.25;;;7.61;59.32
39491;BME280;25175;50.140;18.990;2023-10-19T08:30:21;97236.81;;;7.63;59.03
39491;BME280;25175;50.140;18.990;2023-10-19T08:33:27;97232.56;;;7.68;59.64
39491;BME280;25175;50.140;18.990;2023-10-19T08:36:36;97229.84;;;7.75;58.91
39491;BME280;25175;50.140;18.990;2023-10-19T08:39:43;97238.84;;;7.79;58.93
39491;BME280;25175;50.140;18.990;2023-10-19T08:42:48;97237.41;;;7.83;59.20
39491;BME280;25175;50.140;18.990;2023-10-19T08:45:54;97236.94;;;7.86;59.12
39491;BME280;25175;50.140;18.990;2023-10-19T08:49:01;97226.63;;;7.91;58.88
39491;BME280;25175;50.140;18.990;2023-10-19T08:52:07;97215.75;;;7.94;58.45
39491;BME280;25175;50.140;18.990;2023-10-19T08:55:15;97223.47;;;8.00;58.71
39491;BME280;25175;50.140;18.990;2023-10-19T08:58:20;97209.53;;;8.06;58.84
39491;BME280;25175;50.140;18.990;2023-10-19T09:01:25;97203.88;;;8.09;58.55
39491;BME280;25175;50.140;18.990;2023-10-19T09:04:30;97214.66;;;8.13;58.70
39491;BME280;25175;50.140;18.990;2023-10-19T09:07:35;97205.59;;;8.15;58.51
39491;BME280;25175;50.140;18.990;2023-10-19T09:10:48;97194.69;;;8.18;58.73
39491;BME280;25175;50.140;18.990;2023-10-19T09:13:55;97196.84;;;8.21;58.66
39491;BME280;25175;50.140;18.990;2023-10-19T09:17:00;97200.06;;;8.23;58.06
39491;BME280;25175;50.140;18.990;2023-10-19T09:20:07;97189.13;;;8.26;58.74
39491;BME280;25175;50.140;18.990;2023-10-19T09:23:12;97180.63;;;8.31;59.35
39491;BME280;25175;50.140;18.990;2023-10-19T09:26:21;97190.06;;;8.32;59.33
39491;BME280;25175;50.140;18.990;2023-10-19T09:29:26;97186.44;;;8.33;59.90
39491;BME280;25175;50.140;18.990;2023-10-19T09:32:32;97181.75;;;8.35;59.48
39491;BME280;25175;50.140;18.990;2023-10-19T09:35:39;97189.94;;;8.38;59.51
39491;BME280;25175;50.140;18.990;2023-10-19T09:38:49;97189.28;;;8.43;59.85
39491;BME280;25175;50.140;18.990;2023-10-19T09:41:59;97167.78;;;8.41;59.72
39491;BME280;25175;50.140;18.990;2023-10-19T09:45:08;97186.69;;;8.54;60.15
39491;BME280;25175;50.140;18.990;2023-10-19T09:48:15;97186.28;;;8.57;59.40
39491;BME280;25175;50.140;18.990;2023-10-19T09:51:23;97187.16;;;8.63;58.96
39491;BME280;25175;50.140;18.990;2023-10-19T09:54:38;97174.56;;;8.60;58.79
39491;BME280;25175;50.140;18.990;2023-10-19T09:58:01;97171.59;;;8.68;59.08
39491;BME280;25175;50.140;18.990;2023-10-19T10:01:10;97182.28;;;8.78;59.74
39491;BME280;25175;50.140;18.990;2023-10-19T10:04:31;97161.69;;;8.81;59.85
39491;BME280;25175;50.140;18.990;2023-10-19T10:07:36;97159.19;;;8.86;60.41
39491;BME280;25175;50.140;18.990;2023-10-19T10:10:41;97161.13;;;8.91;60.34
39491;BME280;25175;50.140;18.990;2023-10-19T10:13:50;97137.03;;;8.89;59.93
39491;BME280;25175;50.140;18.990;2023-10-19T10:17:00;97135.66;;;8.98;59.94
39491;BME280;25175;50.140;18.990;2023-10-19T10:20:30;97136.75;;;9.02;59.98
39491;BME280;25175;50.140;18.990;2023-10-19T10:23:40;97118.81;;;8.94;60.20
39491;BME280;25175;50.140;18.990;2023-10-19T10:26:59;97124.00;;;9.05;59.62
39491;BME280;25175;50.140;18.990;2023-10-19T10:30:08;97117.53;;;9.08;60.18
39491;BME280;25175;50.140;18.990;2023-10-19T10:33:37;97098.97;;;9.09;60.62
39491;BME280;25175;50.140;18.990;2023-10-19T10:37:07;97085.91;;;9.09;60.37
39491;BME280;25175;50.140;18.990;2023-10-19T10:40:14;97083.84;;;9.11;60.78
39491;BME280;25175;50.140;18.990;2023-10-19T10:43:20;97078.59;;;9.11;60.89
39491;BME280;25175;50.140;18.990;2023-10-19T10:46:28;97071.00;;;9.10;60.91
39491;BME280;25175;50.140;18.990;2023-10-19T10:49:34;97066.31;;;9.12;61.38
39491;BME280;25175;50.140;18.990;2023-10-19T10:52:39;97056.78;;;9.17;62.04
39491;BME280;25175;50.140;18.990;2023-10-19T10:55:45;96989.53;;;8.78;61.57
39491;BME280;25175;50.140;18.990;2023-10-19T10:58:50;97057.09;;;9.21;61.30
39491;BME280;25175;50.140;18.990;2023-10-19T11:01:59;97041.94;;;9.23;61.54
39491;BME280;25175;50.140;18.990;2023-10-19T11:05:04;97038.06;;;9.25;61.81
39491;BME280;25175;50.140;18.990;2023-10-19T11:08:14;97038.38;;;9.29;61.95
39491;BME280;25175;50.140;18.990;2023-10-19T11:11:21;97023.81;;;9.33;62.12
39491;BME280;25175;50.140;18.990;2023-10-19T11:14:27;97023.66;;;9.39;62.46
39491;BME280;25175;50.140;18.990;2023-10-19T11:17:42;97001.97;;;9.27;62.34
39491;BME280;25175;50.140;18.990;2023-10-19T11:20:54;97022.63;;;9.40;62.04
39491;BME280;25175;50.140;18.990;2023-10-19T11:24:01;97009.53;;;9.40;62.23
39491;BME280;25175;50.140;18.990;2023-10-19T11:27:06;97015.88;;;9.44;62.55
39491;BME280;25175;50.140;18.990;2023-10-19T11:30:13;96998.91;;;9.47;63.01
39491;BME280;25175;50.140;18.990;2023-10-19T11:33:29;96999.47;;;9.49;63.38
39491;BME280;25175;50.140;18.990;2023-10-19T11:36:35;97001.59;;;9.52;63.08
39491;BME280;25175;50.140;18.990;2023-10-19T11:39:40;97006.16;;;9.56;63.15
39491;BME280;25175;50.140;18.990;2023-10-19T11:42:45;96995.38;;;9.53;62.99
39491;BME280;25175;50.140;18.990;2023-10-19T11:45:50;96987.16;;;9.49;62.79
39491;BME280;25175;50.140;18.990;2023-10-19T11:48:57;97013.06;;;9.62;62.71
39491;BME280;25175;50.140;18.990;2023-10-19T11:52:07;97002.66;;;9.67;62.83
39491;BME280;25175;50.140;18.990;2023-10-19T11:55:12;96995.13;;;9.71;62.70
39491;BME280;25175;50.140;18.990;2023-10-19T11:58:17;96994.63;;;9.74;62.65
39491;BME280;25175;50.140;18.990;2023-10-19T12:01:22;97001.78;;;9.78;62.93
39491;BME280;25175;50.140;18.990;2023-10-19T12:04:31;96981.31;;;9.75;62.89
39491;BME280;25175;50.140;18.990;2023-10-19T12:07:37;96982.22;;;9.81;63.10
39491;BME280;25175;50.140;18.990;2023-10-19T12:10:44;96979.59;;;9.81;63.21
39491;BME280;25175;50.140;18.990;2023-10-19T12:13:49;96975.94;;;9.82;63.34
39491;BME280;25175;50.140;18.990;2023-10-19T12:16:55;96975.13;;;9.81;63.41
39491;BME280;25175;50.140;18.990;2023-10-19T12:20:07;96973.88;;;9.84;64.11
39491;BME280;25175;50.140;18.990;2023-10-19T12:23:16;96964.50;;;9.88;64.54
39491;BME280;25175;50.140;18.990;2023-10-19T12:26:24;96959.34;;;9.93;64.85
39491;BME280;25175;50.140;18.990;2023-10-19T12:30:05;96963.06;;;9.97;64.88
39491;BME280;25175;50.140;18.990;2023-10-19T12:33:20;96950.03;;;10.02;65.55
39491;BME280;25175;50.140;18.990;2023-10-19T12:36:28;96952.41;;;10.03;65.09
39491;BME280;25175;50.140;18.990;2023-10-19T12:39:35;96951.88;;;10.01;65.55
39491;BME280;25175;50.140;18.990;2023-10-19T12:42:44;96946.63;;;10.01;66.07
39491;BME280;25175;50.140;18.990;2023-10-19T12:45:49;96945.03;;;10.00;65.37
39491;BME280;25175;50.140;18.990;2023-10-19T12:48:59;96958.16;;;10.00;65.49
39491;BME280;25175;50.140;18.990;2023-10-19T12:52:06;96958.16;;;10.00;65.97
39491;BME280;25175;50.140;18.990;2023-10-19T12:55:12;96943.78;;;10.03;66.49
39491;BME280;25175;50.140;18.990;2023-10-19T12:58:17;96943.03;;;10.07;65.90
39491;BME280;25175;50.140;18.990;2023-10-19T13:01:23;96935.72;;;10.09;66.83
39491;BME280;25175;50.140;18.990;2023-10-19T13:04:29;96937.13;;;10.17;67.12
39491;BME280;25175;50.140;18.990;2023-10-19T13:07:38;96908.47;;;10.10;67.04
39491;BME280;25175;50.140;18.990;2023-10-19T13:10:46;96914.94;;;10.24;66.85
39491;BME280;25175;50.140;18.990;2023-10-19T13:13:52;96914.78;;;10.31;66.91
39491;BME280;25175;50.140;18.990;2023-10-19T13:16:57;96910.13;;;10.38;67.07
39491;BME280;25175;50.140;18.990;2023-10-19T13:20:02;96903.91;;;10.44;66.88
39491;BME280;25175;50.140;18.990;2023-10-19T13:23:20;96912.38;;;10.51;66.52
39491;BME280;25175;50.140;18.990;2023-10-19T13:26:26;96907.44;;;10.54;66.53
39491;BME280;25175;50.140;18.990;2023-10-19T13:29:33;96903.28;;;10.58;66.89
39491;BME280;25175;50.140;18.990;2023-10-19T13:32:41;96893.38;;;10.65;66.27
39491;BME280;25175;50.140;18.990;2023-10-19T13:35:46;96884.50;;;10.66;66.40
39491;BME280;25175;50.140;18.990;2023-10-19T13:38:55;96889.00;;;10.71;66.52
39491;BME280;25175;50.140;18.990;2023-10-19T13:41:59;96876.94;;;10.70;66.07
39491;BME280;25175;50.140;18.990;2023-10-19T13:45:07;96879.53;;;10.70;66.05
39491;BME280;25175;50.140;18.990;2023-10-19T13:48:15;96866.44;;;10.70;66.17
39491;BME280;25175;50.140;18.990;2023-10-19T13:51:21;96633.47;;;9.24;65.98
39491;BME280;25175;50.140;18.990;2023-10-19T13:54:29;96862.28;;;10.74;66.05
39491;BME280;25175;50.140;18.990;2023-10-19T13:57:34;96856.00;;;10.75;66.03
39491;BME280;25175;50.140;18.990;2023-10-19T14:00:41;96853.91;;;10.77;66.01
39491;BME280;25175;50.140;18.990;2023-10-19T14:03:51;96842.34;;;10.78;66.08
39491;BME280;25175;50.140;18.990;2023-10-19T14:10:50;96808.78;;;10.75;66.36
39491;BME280;25175;50.140;18.990;2023-10-19T14:13:55;96809.84;;;10.79;66.49
39491;BME280;25175;50.140;18.990;2023-10-19T14:17:01;96807.47;;;10.77;66.55
39491;BME280;25175;50.140;18.990;2023-10-19T14:20:07;96806.09;;;10.70;66.59
39491;BME280;25175;50.140;18.990;2023-10-19T14:23:16;96814.03;;;10.75;66.82
39491;BME280;25175;50.140;18.990;2023-10-19T14:26:23;96819.56;;;10.78;66.79
39491;BME280;25175;50.140;18.990;2023-10-19T14:29:28;96832.97;;;10.82;66.73
39491;BME280;25175;50.140;18.990;2023-10-19T14:32:33;96834.00;;;10.81;66.31
39491;BME280;25175;50.140;18.990;2023-10-19T14:35:38;96831.63;;;10.79;66.63
39491;BME280;25175;50.140;18.990;2023-10-19T14:38:43;96821.38;;;10.78;66.26
39491;BME280;25175;50.140;18.990;2023-10-19T14:41:51;96825.28;;;10.75;66.62
39491;BME280;25175;50.140;18.990;2023-10-19T14:44:56;96822.94;;;10.74;66.92
39491;BME280;25175;50.140;18.990;2023-10-19T14:48:01;96832.72;;;10.83;66.45
39491;BME280;25175;50.140;18.990;2023-10-19T14:51:09;96833.53;;;10.89;66.38
39491;BME280;25175;50.140;18.990;2023-10-19T14:54:15;96829.94;;;10.95;66.03
39491;BME280;25175;50.140;18.990;2023-10-19T14:57:22;96834.72;;;10.98;65.71
39491;BME280;25175;50.140;18.990;2023-10-19T15:00:28;96817.09;;;10.93;66.27
39491;BME280;25175;50.140;18.990;2023-10-19T15:03:34;96833.63;;;10.94;66.12
39491;BME280;25175;50.140;18.990;2023-10-19T15:06:40;96815.16;;;10.89;65.84
39491;BME280;25175;50.140;18.990;2023-10-19T15:09:44;96830.22;;;10.93;66.14
39491;BME280;25175;50.140;18.990;2023-10-19T15:12:52;96772.72;;;10.60;66.19
39491;BME280;25175;50.140;18.990;2023-10-19T15:16:07;96820.91;;;10.81;66.63
39491;BME280;25175;50.140;18.990;2023-10-19T15:19:14;96800.63;;;10.71;66.57
39491;BME280;25175;50.140;18.990;2023-10-19T15:22:19;96810.34;;;10.76;66.31
39491;BME280;25175;50.140;18.990;2023-10-19T15:25:25;96808.47;;;10.71;66.54
39491;BME280;25175;50.140;18.990;2023-10-19T15:28:32;96811.63;;;10.73;66.43
39491;BME280;25175;50.140;18.990;2023-10-19T15:31:38;96807.91;;;10.69;65.80
39491;BME280;25175;50.140;18.990;2023-10-19T15:34:43;96797.72;;;10.73;65.89
39491;BME280;25175;50.140;18.990;2023-10-19T15:37:49;96810.16;;;10.82;66.06
39491;BME280;25175;50.140;18.990;2023-10-19T15:40:55;96804.63;;;10.84;65.89
39491;BME280;25175;50.140;18.990;2023-10-19T15:44:04;96805.16;;;10.81;65.69
39491;BME280;25175;50.140;18.990;2023-10-19T15:47:09;96812.97;;;10.76;65.48
39491;BME280;25175;50.140;18.990;2023-10-19T15:50:15;96757.59;;;10.41;65.65
39491;BME280;25175;50.140;18.990;2023-10-19T15:53:19;96813.47;;;10.73;65.58
39491;BME280;25175;50.140;18.990;2023-10-19T15:56:24;96809.25;;;10.72;65.95
39491;BME280;25175;50.140;18.990;2023-10-19T15:59:32;96801.94;;;10.74;65.85
39491;BME280;25175;50.140;18.990;2023-10-19T16:02:37;96799.84;;;10.76;65.95
39491;BME280;25175;50.140;18.990;2023-10-19T16:05:42;96805.38;;;10.79;65.68
39491;BME280;25175;50.140;18.990;2023-10-19T16:08:47;96797.03;;;10.82;65.57
39491;BME280;25175;50.140;18.990;2023-10-19T16:11:53;96799.16;;;10.85;65.59
39491;BME280;25175;50.140;18.990;2023-10-19T16:15:01;96781.03;;;10.84;65.36
39491;BME280;25175;50.140;18.990;2023-10-19T16:18:08;96787.66;;;10.91;65.43
39491;BME280;25175;50.140;18.990;2023-10-19T16:21:18;96791.63;;;10.94;65.49
39491;BME280;25175;50.140;18.990;2023-10-19T16:24:23;96773.06;;;10.69;65.32
39491;BME280;25175;50.140;18.990;2023-10-19T16:27:28;96784.31;;;10.96;65.27
39491;BME280;25175;50.140;18.990;2023-10-19T16:30:36;96791.31;;;10.90;65.17
39491;BME280;25175;50.140;18.990;2023-10-19T16:33:41;96795.75;;;10.90;65.33